Time;durP1;ratioP1;P1;durP2;ratioP2;P2;SDS_P1;SDS_P2;PMS_P1;PMS_P2;Temp;Humidity;BMP_temperature;BMP_pressure;BME280_temperature;BME280_humidity;BME280_pressure;Samples;Min_cycle;Max_cycle;Signal;HPM_P1;HPM_P2
2023/02/26 00:02:12;;;;;;;2.03;1.40;;;3.30;1.00;;;;;;4994792;28;20456;-74
2023/02/26 00:04:37;;;;;;;4.93;1.87;;;3.30;1.00;;;;;;4994327;28;20407;-75
2023/02/26 00:07:04;;;;;;;2.70;1.43;;;3.10;1.00;;;;;;4993746;28;20406;-75
2023/02/26 00:09:30;;;;;;;1.92;1.50;;;3.40;94.80;;;;;;4994771;28;20480;-75
2023/02/26 00:11:57;;;;;;;2.45;1.45;;;3.20;99.90;;;;;;4995538;28;20881;-74
2023/02/26 00:14:23;;;;;;;2.00;1.50;;;3.40;1.00;;;;;;4986216;28;20406;-74
2023/02/26 00:17:07;;;;;;;2.63;1.20;;;3.50;1.00;;;;;;4994284;28;20383;-74
2023/02/26 00:19:33;;;;;;;3.03;1.40;;;3.70;1.00;;;;;;4994354;28;20386;-75
2023/02/26 00:21:58;;;;;;;3.50;1.50;;;3.20;99.90;;;;;;4994454;28;20760;-75
2023/02/26 00:24:24;;;;;;;3.60;1.37;;;2.30;1.00;;;;;;5003945;28;20423;-74
2023/02/26 00:26:49;;;;;;;3.50;1.53;;;2.90;1.00;;;;;;5013888;28;20389;-74
2023/02/26 00:29:15;;;;;;;2.20;1.50;;;3.10;1.00;;;;;;5014021;28;20381;-74
2023/02/26 00:31:41;;;;;;;2.67;1.63;;;3.10;1.00;;;;;;5013709;28;20388;-75
2023/02/26 00:34:11;;;;;;;2.97;1.60;;;3.10;1.00;;;;;;5014412;28;20413;-74
2023/02/26 00:36:43;;;;;;;3.05;1.60;;;3.00;1.00;;;;;;5013545;28;20871;-74
2023/02/26 00:39:40;;;;;;;2.08;1.20;;;3.00;1.00;;;;;;5013661;28;20755;-74
2023/02/26 00:42:06;;;;;;;3.17;1.30;;;2.80;1.00;;;;;;4994097;28;20398;-74
2023/02/26 00:44:32;;;;;;;3.22;1.38;;;2.80;1.00;;;;;;4993260;28;20378;-74
2023/02/26 00:47:13;;;;;;;2.90;1.42;;;2.50;1.00;;;;;;4993800;28;20454;-75
2023/02/26 00:49:59;;;;;;;1.53;1.20;;;2.60;1.00;;;;;;4993665;28;20394;-75
2023/02/26 00:52:42;;;;;;;2.88;1.40;;;2.50;1.00;;;;;;5005543;28;20942;-75
2023/02/26 00:55:08;;;;;;;2.97;1.38;;;2.70;1.00;;;;;;5012940;28;20385;-74
2023/02/26 00:57:34;;;;;;;2.40;1.30;;;2.40;1.00;;;;;;5002320;28;20409;-75
2023/02/26 00:59:59;;;;;;;1.33;1.23;;;2.60;99.90;;;;;;5012449;28;20404;-75
2023/02/26 01:02:25;;;;;;;1.20;1.10;;;2.30;1.00;;;;;;5013396;28;20392;-74
2023/02/26 01:04:51;;;;;;;2.15;1.33;;;2.70;99.90;;;;;;5013117;28;20380;-75
2023/02/26 01:07:22;;;;;;;1.63;1.30;;;2.50;99.90;;;;;;5000685;28;20398;-75
2023/02/26 01:09:48;;;;;;;3.17;1.38;;;2.40;1.00;;;;;;4998402;28;20407;-74
2023/02/26 01:12:16;;;;;;;1.60;1.20;;;2.30;1.00;;;;;;5013239;28;20942;-75
2023/02/26 01:14:42;;;;;;;2.95;1.30;;;2.30;1.00;;;;;;4995915;28;20409;-74
2023/02/26 01:17:17;;;;;;;1.67;1.20;;;2.20;99.90;;;;;;5014249;28;20427;-74
2023/02/26 01:19:58;;;;;;;1.50;1.30;;;2.30;1.00;;;;;;5014368;28;20775;-74
2023/02/26 01:22:47;;;;;;;2.75;1.40;;;2.10;99.90;;;;;;5012580;28;20385;-74
2023/02/26 01:25:18;;;;;;;1.60;1.27;;;2.10;1.00;;;;;;5011675;28;20404;-74
2023/02/26 01:27:44;;;;;;;1.80;1.30;;;1.90;1.00;;;;;;5011587;28;20523;-75
2023/02/26 01:30:10;;;;;;;2.00;1.20;;;1.80;99.90;;;;;;5012496;28;20476;-74
2023/02/26 01:32:50;;;;;;;1.80;1.10;;;1.70;1.00;;;;;;5012164;28;20412;-74
2023/02/26 01:35:34;;;;;;;1.70;0.90;;;1.40;1.00;;;;;;4994367;28;20403;-74
2023/02/26 01:38:35;;;;;;;1.67;1.20;;;1.60;99.90;;;;;;5012304;28;20385;-74
2023/02/26 01:41:06;;;;;;;1.20;1.10;;;1.50;1.00;;;;;;4989795;28;20436;-74
2023/02/26 01:43:44;;;;;;;2.80;1.10;;;1.40;1.00;;;;;;4994598;28;20460;-74
2023/02/26 01:46:34;;;;;;;2.07;1.20;;;1.50;1.00;;;;;;5011512;28;20441;-75
2023/02/26 01:49:00;;;;;;;1.80;1.10;;;1.40;1.00;;;;;;5012604;28;20493;-74
2023/02/26 01:51:55;;;;;;;1.23;1.10;;;1.30;99.90;;;;;;5012178;28;20392;-75
2023/02/26 01:54:36;;;;;;;1.63;1.02;;;1.10;1.00;;;;;;5012285;28;20517;-75
2023/02/26 01:57:06;;;;;;;2.97;1.30;;;1.50;66.90;;;;;;4995565;28;20853;-75
2023/02/26 01:59:33;;;;;;;2.40;1.20;;;1.50;1.00;;;;;;4992526;28;20389;-74
2023/02/26 02:02:02;;;;;;;1.75;1.13;;;1.20;99.90;;;;;;5001744;28;20400;-74
2023/02/26 02:04:31;;;;;;;2.90;1.37;;;1.20;99.90;;;;;;5012063;28;20386;-75
2023/02/26 02:06:57;;;;;;;3.05;1.40;;;1.20;1.00;;;;;;4985803;28;20409;-75
2023/02/26 02:09:22;;;;;;;1.70;1.13;;;1.70;1.00;;;;;;4993151;28;20395;-75
2023/02/26 02:12:14;;;;;;;2.33;1.23;;;1.60;1.00;;;;;;4991924;28;20378;-74
2023/02/26 02:14:58;;;;;;;2.03;1.35;;;1.40;13.40;;;;;;4991862;28;20394;-75
2023/02/26 02:17:42;;;;;;;3.13;1.60;;;1.30;1.00;;;;;;4992234;28;20515;-74
2023/02/26 02:20:26;;;;;;;2.33;1.23;;;0.80;1.00;;;;;;4993376;28;20926;-74
2023/02/26 02:23:10;;;;;;;1.63;1.40;;;1.20;51.10;;;;;;4992619;28;20481;-74
2023/02/26 02:25:54;;;;;;;1.90;1.30;;;1.30;99.90;;;;;;5010955;28;20864;-74
2023/02/26 02:28:33;;;;;;;1.48;1.33;;;1.20;99.90;;;;;;5011696;28;20474;-75
2023/02/26 02:31:08;;;;;;;1.70;1.30;;;1.50;99.90;;;;;;5011662;28;21132;-74
2023/02/26 02:34:04;;;;;;;2.45;1.30;;;1.60;99.90;;;;;;5011494;28;20497;-74
2023/02/26 02:36:35;;;;;;;2.30;1.50;;;1.60;1.00;;;;;;5004615;28;20981;-75
2023/02/26 02:39:15;;;;;;;2.47;1.30;;;1.80;99.90;;;;;;5011785;28;20433;-75
2023/02/26 02:41:53;;;;;;;1.55;1.30;;;1.20;99.90;;;;;;5011357;28;20384;-75
2023/02/26 02:44:23;;;;;;;2.63;1.33;;;1.20;1.00;;;;;;5011646;28;20433;-75
2023/02/26 02:46:52;;;;;;;2.22;1.33;;;1.20;1.00;;;;;;5010730;28;20792;-74
2023/02/26 02:49:33;;;;;;;1.60;1.50;;;1.60;99.90;;;;;;5012670;28;20464;-75
2023/02/26 02:52:10;;;;;;;2.00;1.20;;;1.10;1.00;;;;;;5012528;28;20415;-75
2023/02/26 02:54:40;;;;;;;2.10;1.30;;;1.30;1.00;;;;;;5013083;28;20479;-75
2023/02/26 02:57:20;;;;;;;2.00;1.58;;;1.30;1.00;;;;;;4994965;28;20488;-74
2023/02/26 02:59:49;;;;;;;1.25;1.15;;;1.20;1.00;;;;;;4993828;28;21022;-75
2023/02/26 03:02:27;;;;;;;1.60;1.50;;;1.50;99.90;;;;;;5011002;28;20842;-74
2023/02/26 03:04:52;;;;;;;2.30;1.70;;;1.30;4.00;;;;;;5010499;28;20385;-75
2023/02/26 03:07:18;;;;;;;1.70;1.40;;;1.20;1.00;;;;;;4998972;28;20394;-74
2023/02/26 03:09:45;;;;;;;2.60;1.50;;;1.60;1.00;;;;;;4991545;28;20398;-74
2023/02/26 03:12:11;;;;;;;1.75;1.30;;;1.20;1.00;;;;;;4993076;28;20414;-74
2023/02/26 03:14:37;;;;;;;2.00;1.25;;;1.20;99.90;;;;;;5010791;28;20400;-74
2023/02/26 03:17:32;;;;;;;2.33;1.50;;;1.10;1.00;;;;;;5010780;28;20431;-75
2023/02/26 03:20:26;;;;;;;2.92;1.50;;;1.20;97.90;;;;;;5013319;28;20393;-74
2023/02/26 03:22:51;;;;;;;3.10;1.90;;;1.30;57.00;;;;;;5014545;28;20454;-74
2023/02/26 03:25:24;;;;;;;2.60;1.40;;;1.30;99.90;;;;;;5002804;28;20454;-74
2023/02/26 03:28:22;;;;;;;2.15;1.65;;;1.10;1.00;;;;;;5013216;28;20457;-73
2023/02/26 03:31:18;;;;;;;2.30;1.35;;;1.50;1.00;;;;;;4977476;28;20394;-74
2023/02/26 03:33:55;;;;;;;1.92;1.30;;;1.20;1.00;;;;;;4997319;28;20885;-74
2023/02/26 03:36:31;;;;;;;1.70;1.40;;;1.20;99.90;;;;;;5015070;28;20768;-74
2023/02/26 03:39:04;;;;;;;2.47;1.80;;;1.50;1.00;;;;;;4998625;28;20416;-74
2023/02/26 03:41:35;;;;;;;1.98;1.30;;;1.00;1.00;;;;;;4997889;28;20822;-74
2023/02/26 03:44:10;;;;;;;1.50;1.40;;;2.40;84.30;;;;;;5014383;28;20800;-74
2023/02/26 03:46:42;;;;;;;1.70;1.30;;;1.10;99.90;;;;;;5013138;28;20408;-74
2023/02/26 03:49:24;;;;;;;1.80;1.52;;;1.70;1.00;;;;;;5014241;28;20380;-74
2023/02/26 03:51:51;;;;;;;7.32;1.80;;;1.40;1.00;;;;;;5013816;28;20530;-74
2023/02/26 03:54:49;;;;;;;1.90;1.20;;;1.30;99.90;;;;;;5014191;28;20392;-74
2023/02/26 03:57:15;;;;;;;1.58;1.20;;;1.10;1.00;;;;;;5013123;28;20404;-74
2023/02/26 03:59:41;;;;;;;2.00;1.40;;;1.40;1.00;;;;;;5014303;28;20400;-74
2023/02/26 04:02:12;;;;;;;2.50;1.65;;;1.30;99.90;;;;;;5015304;28;20400;-74
2023/02/26 04:04:44;;;;;;;1.38;1.27;;;1.40;99.90;;;;;;4996519;28;20404;-74
2023/02/26 04:07:12;;;;;;;2.53;1.48;;;1.20;99.90;;;;;;5002588;28;20888;-74
2023/02/26 04:09:41;;;;;;;2.50;1.27;;;1.10;1.00;;;;;;4994711;28;20473;-74
2023/02/26 04:12:06;;;;;;;1.70;1.50;;;1.10;1.00;;;;;;4994069;28;20398;-74
2023/02/26 04:14:32;;;;;;;3.20;1.60;;;1.20;99.90;;;;;;4994144;28;20415;-74
2023/02/26 04:16:58;;;;;;;2.57;1.40;;;1.10;99.90;;;;;;4993951;28;20396;-74
2023/02/26 04:19:23;;;;;;;1.60;1.30;;;1.60;99.90;;;;;;4994536;28;20382;-74
2023/02/26 04:21:49;;;;;;;1.70;1.27;;;0.90;1.00;;;;;;4996682;28;20871;-74
2023/02/26 04:24:14;;;;;;;2.93;1.30;;;1.00;1.00;;;;;;4995640;28;20408;-74
2023/02/26 04:26:40;;;;;;;4.80;1.50;;;1.10;1.00;;;;;;5013452;28;20546;-74
2023/02/26 04:29:05;;;;;;;2.50;1.30;;;1.30;1.00;;;;;;5013419;28;20443;-74
2023/02/26 04:31:31;;;;;;;2.07;1.23;;;1.30;99.90;;;;;;5013057;28;20798;-74
2023/02/26 04:33:56;;;;;;;1.77;1.23;;;1.30;1.00;;;;;;5013668;28;20822;-74
2023/02/26 04:36:22;;;;;;;3.03;1.37;;;1.10;1.00;;;;;;5013611;28;20443;-74
2023/02/26 04:38:47;;;;;;;2.60;1.40;;;0.80;1.00;;;;;;5013703;28;20380;-74
2023/02/26 04:41:13;;;;;;;2.20;1.30;;;1.10;1.00;;;;;;5015272;28;20871;-74
2023/02/26 04:43:39;;;;;;;1.50;1.13;;;0.80;99.90;;;;;;5000834;28;20428;-74
2023/02/26 04:46:04;;;;;;;3.17;1.48;;;0.90;1.00;;;;;;5013620;28;20395;-74
2023/02/26 04:48:30;;;;;;;2.15;1.20;;;0.70;1.00;;;;;;5013691;28;20396;-74
2023/02/26 04:50:55;;;;;;;2.90;1.55;;;1.00;1.00;;;;;;5013397;28;20387;-74
2023/02/26 04:53:21;;;;;;;2.05;1.27;;;0.90;99.90;;;;;;5012756;28;20404;-74
2023/02/26 04:55:47;;;;;;;2.15;1.40;;;1.40;1.00;;;;;;5004661;28;20406;-74
2023/02/26 04:58:13;;;;;;;2.10;1.10;;;0.80;1.00;;;;;;4993548;28;20857;-74
2023/02/26 05:00:39;;;;;;;1.40;1.30;;;1.10;99.90;;;;;;4998322;28;20462;-74
2023/02/26 05:03:04;;;;;;;1.50;1.10;;;1.20;99.90;;;;;;5013832;28;20766;-74
2023/02/26 05:05:30;;;;;;;2.10;1.30;;;0.80;1.00;;;;;;5014159;28;20461;-74
2023/02/26 05:07:56;;;;;;;1.80;1.20;;;0.80;1.00;;;;;;4997666;28;20398;-74
2023/02/26 05:10:22;;;;;;;1.25;1.10;;;1.00;99.90;;;;;;4994170;28;20418;-74
2023/02/26 05:12:48;;;;;;;2.83;1.50;;;0.80;99.90;;;;;;5000775;28;20412;-74
2023/02/26 05:15:14;;;;;;;2.47;1.23;;;0.80;99.90;;;;;;5012871;28;20782;-74
2023/02/26 05:17:39;;;;;;;3.50;1.30;;;0.90;1.00;;;;;;5012318;28;20384;-73
2023/02/26 05:20:08;;;;;;;1.00;1.00;;;0.90;1.00;;;;;;5009051;28;20837;-74
2023/02/26 05:22:35;;;;;;;1.70;1.20;;;0.60;99.90;;;;;;4993043;28;20424;-74
2023/02/26 05:25:00;;;;;;;2.13;1.10;;;0.30;1.00;;;;;;5053031;23;20911;-79
2023/02/26 05:27:26;;;;;;;2.00;1.20;;;0.60;1.00;;;;;;5056087;28;20374;-79
2023/02/26 05:29:51;;;;;;;1.30;1.20;;;0.70;1.00;;;;;;5062339;28;20425;-78
2023/02/26 05:32:17;;;;;;;2.30;1.50;;;0.60;1.00;;;;;;5057443;28;20744;-78
2023/02/26 05:34:42;;;;;;;2.28;1.25;;;0.60;1.00;;;;;;5045590;28;20387;-78
2023/02/26 05:37:08;;;;;;;2.42;1.13;;;0.50;1.00;;;;;;5036686;28;20391;-78
2023/02/26 05:39:33;;;;;;;2.17;1.20;;;0.30;1.00;;;;;;5036381;28;20414;-78
2023/02/26 05:41:59;;;;;;;1.70;1.10;;;0.80;1.00;;;;;;5035413;28;20904;-78
2023/02/26 05:44:24;;;;;;;1.30;0.90;;;0.40;1.00;;;;;;5034620;28;20395;-78
2023/02/26 05:46:50;;;;;;;2.30;1.10;;;0.60;1.00;;;;;;5036084;28;20389;-78
2023/02/26 05:49:16;;;;;;;3.42;1.30;;;;;;;;;;5036609;28;20389;-78
2023/02/26 05:51:41;;;;;;;2.40;1.17;;;0.50;99.90;;;;;;5036919;28;20467;-78
2023/02/26 05:54:08;;;;;;;2.00;1.30;;;0.50;1.00;;;;;;5035873;28;20437;-78
2023/02/26 05:56:34;;;;;;;3.40;1.30;;;0.40;1.00;;;;;;5035686;28;20430;-78
2023/02/26 05:58:59;;;;;;;2.53;1.10;;;0.30;1.00;;;;;;5036355;28;20370;-78
2023/02/26 06:01:25;;;;;;;2.92;1.10;;;0.10;99.90;;;;;;5036853;28;20394;-78
2023/02/26 06:03:50;;;;;;;2.08;1.08;;;0.60;1.00;;;;;;5036802;28;20432;-78
2023/02/26 06:06:17;;;;;;;1.70;0.80;;;0.20;1.00;;;;;;5033417;28;20498;-78
2023/02/26 06:08:43;;;;;;;1.65;1.13;;;0.20;1.00;;;;;;5016875;28;20486;-78
2023/02/26 06:11:09;;;;;;;2.10;1.13;;;0.20;1.00;;;;;;5025767;28;20534;-78
2023/02/26 06:13:35;;;;;;;2.37;0.90;;;0.40;1.00;;;;;;5040861;28;20801;-78
2023/02/26 06:16:00;;;;;;;1.88;0.93;;;0.20;1.00;;;;;;5039656;28;20383;-78
2023/02/26 06:18:26;;;;;;;1.90;1.10;;;0.30;1.00;;;;;;5041958;28;20414;-78
2023/02/26 06:20:52;;;;;;;2.50;1.10;;;0.20;1.00;;;;;;5040772;28;20447;-78
2023/02/26 06:23:17;;;;;;;1.40;1.10;;;0.30;1.00;;;;;;5040242;28;20399;-78
2023/02/26 06:25:51;;;;;;;1.00;0.80;;;0.30;1.00;;;;;;5041755;28;20453;-78
2023/02/26 06:28:17;;;;;;;1.80;0.90;;;0.40;99.90;;;;;;5039942;28;20434;-78
2023/02/26 06:30:42;;;;;;;1.63;1.05;;;0.50;1.00;;;;;;5039918;28;20387;-78
2023/02/26 06:33:08;;;;;;;3.00;1.10;;;0.30;1.00;;;;;;5040348;28;20498;-78
2023/02/26 06:35:33;;;;;;;1.70;1.00;;;0.20;99.90;;;;;;5038737;28;20503;-78
2023/02/26 06:37:59;;;;;;;1.97;1.07;;;0.30;1.00;;;;;;5036133;28;20492;-78
2023/02/26 06:40:24;;;;;;;1.90;1.00;;;0.10;1.00;;;;;;5036049;28;20470;-78
2023/02/26 06:42:50;;;;;;;2.50;1.00;;;0.40;1.00;;;;;;5036704;28;20435;-78
2023/02/26 06:45:15;;;;;;;0.90;0.80;;;0.20;99.90;;;;;;5036363;28;20410;-78
2023/02/26 06:47:41;;;;;;;1.80;1.00;;;0.30;1.00;;;;;;5034729;28;20490;-79
2023/02/26 06:50:07;;;;;;;3.50;1.20;;;0.10;1.00;;;;;;5035552;28;20391;-78
2023/02/26 06:52:34;;;;;;;1.35;0.80;;;0.30;1.00;;;;;;5036311;28;20406;-78
2023/02/26 06:54:59;;;;;;;1.63;1.20;;;0.20;99.90;;;;;;5038794;28;20387;-78
2023/02/26 06:57:25;;;;;;;2.40;1.17;;;0.50;1.00;;;;;;5038900;28;20409;-79
2023/02/26 06:59:50;;;;;;;2.70;1.00;;;0.50;1.00;;;;;;5043770;28;20905;-78
2023/02/26 07:02:18;;;;;;;1.20;1.10;;;0.30;1.00;;;;;;5046609;28;20406;-78
2023/02/26 07:04:43;;;;;;;2.42;0.98;;;0.60;1.00;;;;;;5039983;28;20379;-78
2023/02/26 07:07:10;;;;;;;2.05;1.00;;;0.30;1.00;;;;;;5044536;28;20425;-78
2023/02/26 07:09:36;;;;;;;1.90;1.00;;;0.60;1.00;;;;;;5042846;28;20433;-78
2023/02/26 07:12:01;;;;;;;2.10;1.10;;;0.60;1.00;;;;;;5040097;28;20426;-78
2023/02/26 07:14:27;;;;;;;3.23;1.37;;;0.60;1.00;;;;;;5042215;28;20387;-78
2023/02/26 07:16:52;;;;;;;2.10;1.00;;;0.80;1.00;;;;;;5042488;28;20391;-78
2023/02/26 07:19:18;;;;;;;2.00;1.00;;;1.00;1.00;;;;;;5038570;28;20395;-78
2023/02/26 07:21:43;;;;;;;1.93;1.47;;;0.70;1.00;;;;;;5038180;28;20399;-78
2023/02/26 07:24:09;;;;;;;3.50;1.60;;;0.80;1.00;;;;;;5038696;28;20402;-78
2023/02/26 07:26:34;;;;;;;2.40;1.30;;;0.80;1.00;;;;;;5038977;28;20398;-78
2023/02/26 07:29:00;;;;;;;1.60;1.20;;;1.30;1.00;;;;;;5038411;28;20390;-78
2023/02/26 07:31:25;;;;;;;2.50;1.40;;;1.10;1.00;;;;;;5039709;28;20454;-78
2023/02/26 07:33:51;;;;;;;1.27;1.10;;;1.40;1.00;;;;;;5038315;28;20415;-78
2023/02/26 07:36:16;;;;;;;2.30;1.50;;;1.20;1.00;;;;;;5037719;28;20415;-78
2023/02/26 07:38:42;;;;;;;1.70;1.20;;;1.00;1.00;;;;;;5038090;28;20453;-79
2023/02/26 07:41:07;;;;;;;3.70;1.70;;;1.00;1.00;;;;;;5040605;28;20858;-78
2023/02/26 07:43:33;;;;;;;1.60;1.50;;;1.10;1.00;;;;;;5038616;28;20379;-78
2023/02/26 07:45:58;;;;;;;1.50;1.40;;;1.00;1.00;;;;;;5040773;28;20463;-78
2023/02/26 07:48:24;;;;;;;2.27;1.30;;;1.10;1.00;;;;;;5041455;28;20387;-78
2023/02/26 07:50:53;;;;;;;2.70;1.30;;;1.20;1.00;;;;;;5038102;28;20484;-79
2023/02/26 07:53:19;;;;;;;1.85;1.38;;;1.00;1.00;;;;;;5039246;28;20407;-80
2023/02/26 07:55:45;;;;;;;1.90;1.30;;;0.80;1.00;;;;;;5038848;28;20761;-80
2023/02/26 07:58:10;;;;;;;2.07;1.40;;;0.90;1.00;;;;;;5041448;28;20383;-79
2023/02/26 08:00:36;;;;;;;3.00;1.70;;;1.30;1.00;;;;;;5043613;28;20387;-80
2023/02/26 08:03:01;;;;;;;2.17;1.20;;;1.00;1.00;;;;;;5040866;28;20399;-80
2023/02/26 08:05:27;;;;;;;3.10;1.23;;;1.40;1.00;;;;;;5038095;28;20403;-80
2023/02/26 08:07:52;;;;;;;1.97;1.20;;;1.20;1.00;;;;;;5033836;28;20395;-80
2023/02/26 08:10:18;;;;;;;3.50;1.50;;;1.60;1.00;;;;;;5038229;28;20494;-80
2023/02/26 08:12:44;;;;;;;1.67;1.40;;;1.30;1.00;;;;;;5037394;28;20490;-80
2023/02/26 08:15:13;;;;;;;3.13;1.50;;;1.40;1.00;;;;;;5037454;28;20450;-79
2023/02/26 08:17:39;;;;;;;2.97;1.45;;;1.70;1.00;;;;;;5039105;28;20387;-80
2023/02/26 08:20:05;;;;;;;4.97;1.90;;;1.30;99.90;;;;;;5038493;28;20429;-80
2023/02/26 08:22:31;;;;;;;1.83;1.52;;;1.30;1.00;;;;;;5038820;28;20394;-79
2023/02/26 08:24:57;;;;;;;4.15;2.47;;;;;;;;;;5037592;28;20450;-80
2023/02/26 08:27:22;;;;;;;3.90;1.60;;;1.40;1.00;;;;;;5038481;28;20449;-80
2023/02/26 08:29:49;;;;;;;2.07;1.87;;;1.50;1.00;;;;;;5037112;28;20834;-80
2023/02/26 08:32:16;;;;;;;2.20;1.40;;;1.60;1.00;;;;;;5037662;28;20425;-82
2023/02/26 08:34:42;;;;;;;1.48;1.30;;;1.40;1.00;;;;;;5038969;28;20931;-80
2023/02/26 08:37:10;;;;;;;1.98;1.60;;;1.70;99.90;;;;;;5038378;28;20380;-80
2023/02/26 08:39:37;;;;;;;2.43;1.47;;;1.50;1.00;;;;;;5047357;28;20467;-79
2023/02/26 08:42:05;;;;;;;1.38;1.15;;;3.10;13.10;;;;;;5050952;28;20376;-80
2023/02/26 08:44:31;;;;;;;2.60;1.25;;;1.70;1.00;;;;;;5051536;28;20494;-79
2023/02/26 08:46:56;;;;;;;2.20;1.03;;;1.50;1.00;;;;;;5051644;28;20409;-79
2023/02/26 08:49:22;;;;;;;2.77;1.60;;;1.90;1.00;;;;;;5050625;28;20447;-80
2023/02/26 08:51:47;;;;;;;2.53;1.20;;;1.80;1.00;;;;;;5048060;28;20462;-80
2023/02/26 08:54:13;;;;;;;1.80;1.20;;;1.90;99.90;;;;;;5037484;28;20422;-80
2023/02/26 08:56:38;;;;;;;1.65;0.90;;;2.20;99.90;;;;;;5035985;28;20482;-78
2023/02/26 08:59:04;;;;;;;1.40;1.10;;;2.00;1.00;;;;;;5034329;28;20386;-79
2023/02/26 09:01:30;;;;;;;3.97;1.30;;;1.80;99.90;;;;;;5036558;28;20399;-78
2023/02/26 09:03:56;;;;;;;1.90;1.20;;;1.90;99.90;;;;;;5036314;28;20463;-79
2023/02/26 09:06:21;;;;;;;1.60;1.40;;;2.10;99.90;;;;;;5034242;28;20431;-78
2023/02/26 09:08:48;;;;;;;1.10;0.90;;;1.80;99.90;;;;;;5020512;28;20401;-79
2023/02/26 09:11:13;;;;;;;1.90;0.98;;;1.60;99.90;;;;;;5025880;28;20895;-79
2023/02/26 09:13:39;;;;;;;1.30;1.20;;;1.70;99.90;;;;;;5037825;28;20410;-79
2023/02/26 09:16:05;;;;;;;0.80;0.80;;;1.70;99.90;;;;;;5037101;28;20398;-79
2023/02/26 09:18:30;;;;;;;0.87;0.80;;;1.80;99.90;;;;;;5037676;28;20391;-79
2023/02/26 09:20:56;;;;;;;4.20;0.70;;;1.90;99.90;;;;;;5036978;28;20885;-79
2023/02/26 09:23:21;;;;;;;1.43;0.83;;;1.90;99.90;;;;;;5037086;28;20413;-79
2023/02/26 09:25:54;;;;;;;1.20;0.80;;;2.60;99.90;;;;;;5036633;28;20399;-78
2023/02/26 09:28:21;;;;;;;2.30;1.20;;;2.30;99.90;;;;;;5035112;28;20426;-78
2023/02/26 09:30:49;;;;;;;1.15;1.05;;;2.70;99.90;;;;;;5036385;28;20391;-78
2023/02/26 09:33:15;;;;;;;1.17;1.02;;;3.70;99.90;;;;;;5034134;28;20403;-78
2023/02/26 09:35:40;;;;;;;1.02;0.93;;;2.40;99.90;;;;;;5036202;28;20397;-79
2023/02/26 09:38:07;;;;;;;1.10;0.80;;;2.20;99.90;;;;;;5034977;28;20383;-78
2023/02/26 09:40:45;;;;;;;0.80;0.60;;;2.40;99.90;;;;;;5034576;28;20395;-78
2023/02/26 09:43:34;;;;;;;0.80;0.60;;;2.20;99.90;;;;;;5035838;28;20447;-78
2023/02/26 09:46:07;;;;;;;1.20;0.80;;;2.10;99.90;;;;;;5034778;28;20750;-78
2023/02/26 09:48:35;;;;;;;1.50;0.70;;;2.30;99.90;;;;;;5034283;28;20449;-78
2023/02/26 09:51:00;;;;;;;1.02;0.70;;;2.50;99.90;;;;;;5034753;28;20391;-78
2023/02/26 09:53:39;;;;;;;2.70;0.80;;;2.50;99.90;;;;;;5036492;28;20923;-78
2023/02/26 09:56:12;;;;;;;1.38;0.88;;;2.30;99.90;;;;;;5037708;28;20380;-79
2023/02/26 09:58:39;;;;;;;0.70;0.60;;;2.30;99.90;;;;;;5037367;28;20900;-79
2023/02/26 10:01:05;;;;;;;0.93;0.82;;;2.50;99.90;;;;;;5035826;28;20398;-78
2023/02/26 10:04:07;;;;;;;0.90;0.60;;;2.00;99.90;;;;;;5035206;28;20410;-79
2023/02/26 10:07:00;;;;;;;1.42;0.65;;;2.20;99.90;;;;;;5035068;28;20766;-79
2023/02/26 10:09:30;;;;;;;0.98;0.52;;;2.30;99.90;;;;;;5035303;28;20395;-79
2023/02/26 10:12:15;;;;;;;1.70;0.70;;;2.10;99.90;;;;;;5035182;28;20391;-79
2023/02/26 10:15:00;;;;;;;1.33;0.80;;;2.20;99.90;;;;;;5037387;28;20402;-80
2023/02/26 10:17:44;;;;;;;1.65;0.90;;;2.40;99.90;;;;;;5034698;28;20397;-79
2023/02/26 10:20:22;;;;;;;1.70;0.80;;;2.50;99.90;;;;;;5034549;28;20944;-79
2023/02/26 10:23:14;;;;;;;1.38;0.90;;;2.50;99.90;;;;;;5034523;28;20389;-79
2023/02/26 10:25:44;;;;;;;1.40;1.00;;;2.30;99.90;;;;;;5015311;28;20463;-79
2023/02/26 10:28:43;;;;;;;1.13;0.95;;;2.20;99.90;;;;;;5033953;28;20406;-78
2023/02/26 10:31:34;;;;;;;2.72;0.90;;;2.10;99.90;;;;;;5033566;28;20406;-78
2023/02/26 10:34:44;;;;;;;1.83;0.80;;;2.30;99.90;;;;;;5029168;28;20464;-78
2023/02/26 10:37:54;;;;;;;1.80;0.77;;;2.70;99.90;;;;;;5020679;28;20429;-78
2023/02/26 10:40:58;;;;;;;1.45;0.80;;;2.30;99.90;;;;;;5033873;28;20769;-79
2023/02/26 10:43:35;;;;;;;2.50;0.90;;;2.40;99.90;;;;;;5034644;28;20908;-80
2023/02/26 10:46:19;;;;;;;1.20;0.70;;;2.50;99.90;;;;;;5034484;28;20383;-78
2023/02/26 10:49:03;;;;;;;1.52;1.08;;;2.00;99.90;;;;;;5033585;28;20387;-78
2023/02/26 10:51:36;;;;;;;1.63;1.00;;;2.00;99.90;;;;;;5032700;28;20422;-78
2023/02/26 10:54:28;;;;;;;0.90;0.77;;;1.70;1.00;;;;;;5035115;28;20509;-78
2023/02/26 10:56:54;;;;;;;0.80;0.70;;;1.70;1.00;;;;;;5033244;28;20426;-79
2023/02/26 10:59:20;;;;;;;0.70;0.63;;;2.00;99.90;;;;;;5034294;28;20388;-78
2023/02/26 11:01:47;;;;;;;1.30;0.80;;;2.40;99.90;;;;;;5033791;28;20383;-78
2023/02/26 11:04:18;;;;;;;1.10;1.00;;;2.70;1.00;;;;;;5033341;28;20395;-78
2023/02/26 11:06:52;;;;;;;1.77;1.20;;;2.70;1.00;;;;;;5033002;28;20482;-78
2023/02/26 11:09:29;;;;;;;2.45;1.25;;;2.70;1.00;;;;;;5035390;28;20398;-78
2023/02/26 11:12:05;;;;;;;1.27;1.07;;;2.80;1.00;;;;;;5032505;28;20409;-78
2023/02/26 11:14:32;;;;;;;1.27;1.17;;;4.20;99.90;;;;;;5033584;28;20403;-78
2023/02/26 11:17:01;;;;;;;2.00;1.10;;;4.20;1.00;;;;;;5034069;28;20399;-79
2023/02/26 11:19:38;;;;;;;1.77;1.00;;;4.40;99.90;;;;;;5039381;28;20734;-79
2023/02/26 11:22:06;;;;;;;1.38;0.90;;;4.00;99.90;;;;;;5040364;28;20391;-78
2023/02/26 11:24:39;;;;;;;1.15;1.05;;;3.90;99.90;;;;;;5040954;28;20391;-78
2023/02/26 11:27:11;;;;;;;1.40;0.80;;;3.70;99.90;;;;;;5034937;28;20429;-79
2023/02/26 11:29:40;;;;;;;2.00;1.10;;;3.40;99.90;;;;;;5034759;28;20798;-79
2023/02/26 11:32:06;;;;;;;1.00;0.70;;;3.60;99.90;;;;;;5033471;28;20380;-79
2023/02/26 11:34:33;;;;;;;1.20;0.70;;;3.60;99.90;;;;;;5034852;28;20750;-79
2023/02/26 11:37:00;;;;;;;1.77;0.70;;;5.70;99.90;;;;;;5035050;28;20907;-78
2023/02/26 11:39:33;;;;;;;0.98;0.70;;;3.20;99.90;;;;;;5035192;28;20885;-79
2023/02/26 11:42:00;;;;;;;1.00;0.80;;;3.30;99.90;;;;;;5037962;28;20394;-79
2023/02/26 11:44:40;;;;;;;0.70;0.70;;;3.40;99.90;;;;;;5019100;28;20408;-79
2023/02/26 11:47:19;;;;;;;0.80;0.70;;;3.60;99.90;;;;;;5029030;28;20458;-79
2023/02/26 11:49:54;;;;;;;1.27;1.00;;;4.40;99.90;;;;;;5037776;28;20410;-79
2023/02/26 11:52:29;;;;;;;0.80;0.80;;;4.90;99.90;;;;;;5037438;28;20435;-79
2023/02/26 11:55:19;;;;;;;0.70;0.60;;;4.80;99.90;;;;;;5036320;28;20398;-78
2023/02/26 11:57:45;;;;;;;0.97;0.80;;;4.90;99.90;;;;;;5017010;28;20786;-79
2023/02/26 12:00:30;;;;;;;0.80;0.70;;;3.70;99.90;;;;;;5033552;28;20431;-78
2023/02/26 12:03:01;;;;;;;4.40;0.90;;;0.20;70.00;;;;;;5017021;28;20761;-78
2023/02/26 12:05:26;;;;;;;0.80;0.80;;;3.30;99.90;;;;;;5036024;28;20408;-79
2023/02/26 12:07:52;;;;;;;1.00;0.90;;;3.20;99.90;;;;;;5036756;28;20821;-79
2023/02/26 12:10:28;;;;;;;1.00;0.70;;;3.70;99.90;;;;;;5039119;28;20399;-79
2023/02/26 12:13:19;;;;;;;1.07;0.70;;;3.30;99.90;;;;;;5036294;28;20409;-78
2023/02/26 12:15:58;;;;;;;1.10;0.70;;;3.40;61.40;;;;;;5038166;28;20430;-79
2023/02/26 12:18:33;;;;;;;0.90;0.80;;;3.20;53.10;;;;;;5045402;28;20398;-79
2023/02/26 12:21:13;;;;;;;0.90;0.80;;;3.10;99.90;;;;;;5046833;28;20955;-80
2023/02/26 12:23:59;;;;;;;0.80;0.80;;;3.40;54.00;;;;;;5040096;28;20482;-80
2023/02/26 12:26:34;;;;;;;1.30;0.80;;;3.30;56.20;;;;;;5040096;28;20494;-80
2023/02/26 12:28:59;;;;;;;1.15;0.88;;;3.30;67.20;;;;;;5038479;28;20474;-80
2023/02/26 12:31:38;;;;;;;1.02;0.80;;;3.20;89.30;;;;;;5038281;28;20423;-79
2023/02/26 12:34:20;;;;;;;1.17;1.00;;;3.90;73.00;;;;;;5038061;28;20490;-79
2023/02/26 12:37:19;;;;;;;1.27;0.80;;;4.00;59.40;;;;;;5038716;28;20405;-79
2023/02/26 12:40:16;;;;;;;0.90;0.80;;;4.10;50.80;;;;;;5044927;28;20415;-79
2023/02/26 12:43:09;;;;;;;1.02;0.80;;;3.80;52.70;;;;;;5039396;28;20919;-79
2023/02/26 12:46:00;;;;;;;1.00;0.90;;;3.70;87.40;;;;;;5033770;28;20499;-79
2023/02/26 12:48:37;;;;;;;1.03;0.87;;;3.80;57.30;;;;;;5018383;28;20396;-79
2023/02/26 12:51:31;;;;;;;1.00;0.70;;;3.60;59.60;;;;;;5016218;28;20396;-79
2023/02/26 12:54:18;;;;;;;0.75;0.70;;;3.50;58.50;;;;;;5017023;28;20472;-80
2023/02/26 12:56:52;;;;;;;0.70;0.70;;;3.40;99.90;;;;;;5018425;28;20419;-79
2023/02/26 12:59:41;;;;;;;1.38;1.00;;;3.30;83.90;;;;;;5017883;28;20381;-78
2023/02/26 13:02:39;;;;;;;1.17;0.70;;;3.70;99.90;;;;;;5018414;28;20391;-79
2023/02/26 13:05:18;;;;;;;1.20;0.68;;;3.30;81.50;;;;;;5036628;28;20398;-79
2023/02/26 13:08:08;;;;;;;0.90;0.80;;;3.50;92.00;;;;;;5038399;28;20398;-79
2023/02/26 13:10:47;;;;;;;1.50;0.80;;;3.40;94.30;;;;;;5039357;28;20416;-79
2023/02/26 13:13:46;;;;;;;1.15;0.82;;;4.10;99.90;;;;;;5038354;28;20411;-79
2023/02/26 13:16:59;;;;;;;0.80;0.80;;;4.10;99.60;;;;;;5042074;28;20390;-79
2023/02/26 13:19:37;;;;;;;0.80;0.70;;;4.60;91.10;;;;;;4977074;28;20476;-79
2023/02/26 13:22:12;;;;;;;0.80;0.80;;;5.20;99.90;;;;;;5046336;28;20440;-80
2023/02/26 13:24:47;;;;;;;1.40;0.80;;;4.30;99.90;;;;;;5045349;28;20496;-79
2023/02/26 13:27:14;;;;;;;0.90;0.90;;;4.40;99.90;;;;;;5044981;28;20391;-79
2023/02/26 13:29:57;;;;;;;1.50;0.80;;;4.10;99.90;;;;;;5047788;28;20395;-79